sensor_id;sensor_type;location;lat;lon;timestamp;temperature;humidity
46752;DHT22;32497;48.936;9.270;2023-04-15T00:00:44;5.20;81.70
46752;DHT22;32497;48.936;9.270;2023-04-15T00:05:45;5.10;82.30
46752;DHT22;32497;48.936;9.270;2023-04-15T00:10:46;5.10;82.30
46752;DHT22;32497;48.936;9.270;2023-04-15T00:15:48;4.90;82.60
46752;DHT22;32497;48.936;9.270;2023-04-15T00:20:49;4.90;82.90
46752;DHT22;32497;48.936;9.270;2023-04-15T00:25:51;4.90;83.00
46752;DHT22;32497;48.936;9.270;2023-04-15T00:30:53;4.70;83.10
46752;DHT22;32497;48.936;9.270;2023-04-15T00:35:54;4.60;83.90
46752;DHT22;32497;48.936;9.270;2023-04-15T00:40:55;4.60;83.40
46752;DHT22;32497;48.936;9.270;2023-04-15T00:45:58;4.70;83.40
46752;DHT22;32497;48.936;9.270;2023-04-15T00:51:00;4.60;83.50
46752;DHT22;32497;48.936;9.270;2023-04-15T00:56:01;4.60;83.40
46752;DHT22;32497;48.936;9.270;2023-04-15T01:01:04;4.50;83.70
46752;DHT22;32497;48.936;9.270;2023-04-15T01:06:05;4.40;84.20
46752;DHT22;32497;48.936;9.270;2023-04-15T01:11:07;4.50;84.20
46752;DHT22;32497;48.936;9.270;2023-04-15T01:16:10;4.30;84.40
46752;DHT22;32497;48.936;9.270;2023-04-15T01:21:11;4.40;84.70
46752;DHT22;32497;48.936;9.270;2023-04-15T01:26:14;4.20;84.60
46752;DHT22;32497;48.936;9.270;2023-04-15T01:31:15;4.20;84.80
46752;DHT22;32497;48.936;9.270;2023-04-15T01:36:17;4.10;84.80
46752;DHT22;32497;48.936;9.270;2023-04-15T01:41:24;3.90;85.40
46752;DHT22;32497;48.936;9.270;2023-04-15T01:46:26;3.90;85.30
46752;DHT22;32497;48.936;9.270;2023-04-15T01:51:27;3.70;85.40
46752;DHT22;32497;48.936;9.270;2023-04-15T01:56:30;3.60;85.60
46752;DHT22;32497;48.936;9.270;2023-04-15T02:01:31;3.50;85.80
46752;DHT22;32497;48.936;9.270;2023-04-15T02:06:33;3.40;86.40
46752;DHT22;32497;48.936;9.270;2023-04-15T02:11:36;3.40;86.90
46752;DHT22;32497;48.936;9.270;2023-04-15T02:16:38;3.30;87.10
46752;DHT22;32497;48.936;9.270;2023-04-15T02:21:40;3.30;87.40
46752;DHT22;32497;48.936;9.270;2023-04-15T02:26:43;3.30;87.10
46752;DHT22;32497;48.936;9.270;2023-04-15T02:31:45;3.40;87.10
46752;DHT22;32497;48.936;9.270;2023-04-15T02:36:46;3.40;87.30
46752;DHT22;32497;48.936;9.270;2023-04-15T02:41:50;3.30;87.10
46752;DHT22;32497;48.936;9.270;2023-04-15T02:46:51;3.20;87.60
46752;DHT22;32497;48.936;9.270;2023-04-15T02:51:52;3.40;87.00
46752;DHT22;32497;48.936;9.270;2023-04-15T02:56:55;3.30;87.30
46752;DHT22;32497;48.936;9.270;2023-04-15T03:01:57;3.30;87.70
46752;DHT22;32497;48.936;9.270;2023-04-15T03:06:58;3.20;87.50
46752;DHT22;32497;48.936;9.270;2023-04-15T03:12:02;3.20;87.80
46752;DHT22;32497;48.936;9.270;2023-04-15T03:17:04;3.30;87.80
46752;DHT22;32497;48.936;9.270;2023-04-15T03:22:05;3.30;87.90
46752;DHT22;32497;48.936;9.270;2023-04-15T03:27:08;3.40;87.90
46752;DHT22;32497;48.936;9.270;2023-04-15T03:32:10;3.50;88.20
46752;DHT22;32497;48.936;9.270;2023-04-15T03:37:11;3.60;87.40
46752;DHT22;32497;48.936;9.270;2023-04-15T03:42:13;3.60;87.40
46752;DHT22;32497;48.936;9.270;2023-04-15T03:47:14;3.50;87.30
46752;DHT22;32497;48.936;9.270;2023-04-15T03:52:15;3.40;87.50
46752;DHT22;32497;48.936;9.270;2023-04-15T03:57:18;3.50;87.70
46752;DHT22;32497;48.936;9.270;2023-04-15T04:02:19;3.50;87.90
46752;DHT22;32497;48.936;9.270;2023-04-15T04:07:22;3.40;87.70
46752;DHT22;32497;48.936;9.270;2023-04-15T04:12:25;3.40;87.80
46752;DHT22;32497;48.936;9.270;2023-04-15T04:17:26;3.40;87.70
46752;DHT22;32497;48.936;9.270;2023-04-15T04:22:27;3.30;86.90
46752;DHT22;32497;48.936;9.270;2023-04-15T04:27:29;3.00;87.10
46752;DHT22;32497;48.936;9.270;2023-04-15T04:32:31;2.80;87.40
46752;DHT22;32497;48.936;9.270;2023-04-15T04:37:32;2.70;87.50
46752;DHT22;32497;48.936;9.270;2023-04-15T04:42:34;2.60;88.20
46752;DHT22;32497;48.936;9.270;2023-04-15T04:47:35;2.40;88.30
46752;DHT22;32497;48.936;9.270;2023-04-15T04:52:37;2.30;88.70
46752;DHT22;32497;48.936;9.270;2023-04-15T04:57:39;2.20;88.70
46752;DHT22;32497;48.936;9.270;2023-04-15T05:02:40;2.20;89.20
46752;DHT22;32497;48.936;9.270;2023-04-15T05:07:41;2.20;89.50
46752;DHT22;32497;48.936;9.270;2023-04-15T05:12:44;2.40;90.00
46752;DHT22;32497;48.936;9.270;2023-04-15T05:17:45;2.40;89.30
46752;DHT22;32497;48.936;9.270;2023-04-15T05:22:46;2.50;89.60
46752;DHT22;32497;48.936;9.270;2023-04-15T05:27:48;2.60;89.50
46752;DHT22;32497;48.936;9.270;2023-04-15T05:32:49;2.70;89.50
46752;DHT22;32497;48.936;9.270;2023-04-15T05:37:50;2.80;89.30
46752;DHT22;32497;48.936;9.270;2023-04-15T05:42:53;2.90;89.30
46752;DHT22;32497;48.936;9.270;2023-04-15T05:47:54;3.10;89.00
46752;DHT22;32497;48.936;9.270;2023-04-15T05:52:55;3.40;89.00
46752;DHT22;32497;48.936;9.270;2023-04-15T05:57:57;3.60;88.60
46752;DHT22;32497;48.936;9.270;2023-04-15T06:02:58;4.00;88.00
46752;DHT22;32497;48.936;9.270;2023-04-15T06:08:00;4.20;87.20
46752;DHT22;32497;48.936;9.270;2023-04-15T06:13:02;4.50;86.90
46752;DHT22;32497;48.936;9.270;2023-04-15T06:18:03;4.70;84.80
46752;DHT22;32497;48.936;9.270;2023-04-15T06:23:05;4.90;85.20
46752;DHT22;32497;48.936;9.270;2023-04-15T06:28:07;5.10;84.30
46752;DHT22;32497;48.936;9.270;2023-04-15T06:33:08;5.40;83.40
46752;DHT22;32497;48.936;9.270;2023-04-15T06:38:09;5.70;81.70
46752;DHT22;32497;48.936;9.270;2023-04-15T06:43:12;6.00;81.50
46752;DHT22;32497;48.936;9.270;2023-04-15T06:48:13;6.30;81.60
46752;DHT22;32497;48.936;9.270;2023-04-15T06:53:14;6.40;80.60
46752;DHT22;32497;48.936;9.270;2023-04-15T06:58:16;6.40;80.60
46752;DHT22;32497;48.936;9.270;2023-04-15T07:03:18;6.60;79.70
46752;DHT22;32497;48.936;9.270;2023-04-15T07:08:19;6.50;79.70
46752;DHT22;32497;48.936;9.270;2023-04-15T07:13:21;6.60;79.80
46752;DHT22;32497;48.936;9.270;2023-04-15T07:18:23;7.10;78.20
46752;DHT22;32497;48.936;9.270;2023-04-15T07:23:24;7.80;74.00
46752;DHT22;32497;48.936;9.270;2023-04-15T07:28:26;8.60;70.90
46752;DHT22;32497;48.936;9.270;2023-04-15T07:33:27;9.60;67.30
46752;DHT22;32497;48.936;9.270;2023-04-15T07:38:28;10.20;65.50
46752;DHT22;32497;48.936;9.270;2023-04-15T07:43:31;10.20;64.00
46752;DHT22;32497;48.936;9.270;2023-04-15T07:48:32;9.70;65.70
46752;DHT22;32497;48.936;9.270;2023-04-15T07:53:33;10.00;65.40
46752;DHT22;32497;48.936;9.270;2023-04-15T07:58:35;9.90;65.20
46752;DHT22;32497;48.936;9.270;2023-04-15T08:03:37;10.00;65.40
46752;DHT22;32497;48.936;9.270;2023-04-15T08:08:38;10.20;64.30
46752;DHT22;32497;48.936;9.270;2023-04-15T08:13:41;10.20;64.10
46752;DHT22;32497;48.936;9.270;2023-04-15T08:18:42;10.30;63.60
46752;DHT22;32497;48.936;9.270;2023-04-15T08:23:43;10.60;64.40
46752;DHT22;32497;48.936;9.270;2023-04-15T08:28:46;10.60;65.20
46752;DHT22;32497;48.936;9.270;2023-04-15T08:33:47;11.10;64.60
46752;DHT22;32497;48.936;9.270;2023-04-15T08:38:48;11.60;62.90
46752;DHT22;32497;48.936;9.270;2023-04-15T08:43:57;11.90;59.70
46752;DHT22;32497;48.936;9.270;2023-04-15T08:49:03;12.20;58.60
46752;DHT22;32497;48.936;9.270;2023-04-15T08:54:04;12.80;56.20
46752;DHT22;32497;48.936;9.270;2023-04-15T08:59:08;12.90;56.20
46752;DHT22;32497;48.936;9.270;2023-04-15T09:04:09;13.40;53.70
46752;DHT22;32497;48.936;9.270;2023-04-15T09:09:12;14.10;51.80
46752;DHT22;32497;48.936;9.270;2023-04-15T09:14:14;14.60;50.40
46752;DHT22;32497;48.936;9.270;2023-04-15T09:19:20;14.70;49.80
46752;DHT22;32497;48.936;9.270;2023-04-15T09:24:21;14.70;49.70
46752;DHT22;32497;48.936;9.270;2023-04-15T09:29:24;14.80;49.60
46752;DHT22;32497;48.936;9.270;2023-04-15T09:34:34;15.30;51.10
46752;DHT22;32497;48.936;9.270;2023-04-15T09:39:46;15.20;51.20
46752;DHT22;32497;48.936;9.270;2023-04-15T09:44:49;15.30;49.50
46752;DHT22;32497;48.936;9.270;2023-04-15T09:49:54;14.80;51.50
46752;DHT22;32497;48.936;9.270;2023-04-15T09:54:57;15.30;51.70
46752;DHT22;32497;48.936;9.270;2023-04-15T10:00:00;16.20;49.40
46752;DHT22;32497;48.936;9.270;2023-04-15T10:05:01;15.70;47.40
46752;DHT22;32497;48.936;9.270;2023-04-15T10:10:03;15.30;46.70
46752;DHT22;32497;48.936;9.270;2023-04-15T10:15:10;15.60;47.60
46752;DHT22;32497;48.936;9.270;2023-04-15T10:20:14;16.20;46.80
46752;DHT22;32497;48.936;9.270;2023-04-15T10:25:17;16.00;44.80
46752;DHT22;32497;48.936;9.270;2023-04-15T10:30:20;15.40;46.40
46752;DHT22;32497;48.936;9.270;2023-04-15T10:35:22;15.50;45.70
46752;DHT22;32497;48.936;9.270;2023-04-15T10:40:25;15.30;45.80
46752;DHT22;32497;48.936;9.270;2023-04-15T10:45:35;16.10;43.90
46752;DHT22;32497;48.936;9.270;2023-04-15T10:50:36;16.20;44.30
46752;DHT22;32497;48.936;9.270;2023-04-15T10:55:38;16.20;42.50
46752;DHT22;32497;48.936;9.270;2023-04-15T11:00:49;16.70;44.60
46752;DHT22;32497;48.936;9.270;2023-04-15T11:05:51;16.80;42.80
46752;DHT22;32497;48.936;9.270;2023-04-15T11:10:53;16.90;39.50
46752;DHT22;32497;48.936;9.270;2023-04-15T11:16:00;16.60;41.80
46752;DHT22;32497;48.936;9.270;2023-04-15T11:21:06;17.40;41.50
46752;DHT22;32497;48.936;9.270;2023-04-15T11:26:08;16.10;43.90
46752;DHT22;32497;48.936;9.270;2023-04-15T11:31:12;15.70;46.80
46752;DHT22;32497;48.936;9.270;2023-04-15T11:36:14;16.00;45.10
46752;DHT22;32497;48.936;9.270;2023-04-15T11:41:19;15.80;44.00
46752;DHT22;32497;48.936;9.270;2023-04-15T11:46:28;15.20;45.50
46752;DHT22;32497;48.936;9.270;2023-04-15T11:51:31;14.90;45.60
46752;DHT22;32497;48.936;9.270;2023-04-15T11:56:33;15.10;46.90
46752;DHT22;32497;48.936;9.270;2023-04-15T12:01:37;15.10;43.90
46752;DHT22;32497;48.936;9.270;2023-04-15T12:06:38;15.20;44.20
46752;DHT22;32497;48.936;9.270;2023-04-15T12:11:44;14.70;44.00
46752;DHT22;32497;48.936;9.270;2023-04-15T12:16:50;12.90;45.90
46752;DHT22;32497;48.936;9.270;2023-04-15T12:21:56;12.80;43.50
46752;DHT22;32497;48.936;9.270;2023-04-15T12:27:01;13.00;44.60
46752;DHT22;32497;48.936;9.270;2023-04-15T12:32:08;13.20;43.80
46752;DHT22;32497;48.936;9.270;2023-04-15T12:37:11;13.40;49.90
46752;DHT22;32497;48.936;9.270;2023-04-15T12:42:13;13.20;50.10
46752;DHT22;32497;48.936;9.270;2023-04-15T12:47:15;13.10;44.30
46752;DHT22;32497;48.936;9.270;2023-04-15T12:52:16;13.20;42.10
46752;DHT22;32497;48.936;9.270;2023-04-15T12:57:17;13.20;41.00
46752;DHT22;32497;48.936;9.270;2023-04-15T13:02:20;12.90;39.30
46752;DHT22;32497;48.936;9.270;2023-04-15T13:07:21;12.80;39.80
46752;DHT22;32497;48.936;9.270;2023-04-15T13:12:22;13.00;40.80
46752;DHT22;32497;48.936;9.270;2023-04-15T13:17:25;13.00;40.30
46752;DHT22;32497;48.936;9.270;2023-04-15T13:22:26;12.90;41.10
46752;DHT22;32497;48.936;9.270;2023-04-15T13:27:27;13.20;42.50
46752;DHT22;32497;48.936;9.270;2023-04-15T13:32:30;12.90;42.20
46752;DHT22;32497;48.936;9.270;2023-04-15T13:37:31;12.70;40.80
46752;DHT22;32497;48.936;9.270;2023-04-15T13:42:32;12.60;41.00
46752;DHT22;32497;48.936;9.270;2023-04-15T13:47:34;12.40;40.70
46752;DHT22;32497;48.936;9.270;2023-04-15T13:52:35;12.40;41.50
46752;DHT22;32497;48.936;9.270;2023-04-15T13:57:37;12.10;42.30
46752;DHT22;32497;48.936;9.270;2023-04-15T14:02:39;12.30;43.60
46752;DHT22;32497;48.936;9.270;2023-04-15T14:07:40;12.40;43.90
46752;DHT22;32497;48.936;9.270;2023-04-15T14:12:41;12.20;44.80
46752;DHT22;32497;48.936;9.270;2023-04-15T14:17:44;12.20;45.80
46752;DHT22;32497;48.936;9.270;2023-04-15T14:22:45;12.20;46.20
46752;DHT22;32497;48.936;9.270;2023-04-15T14:27:47;12.20;46.60
46752;DHT22;32497;48.936;9.270;2023-04-15T14:32:49;12.30;47.00
46752;DHT22;32497;48.936;9.270;2023-04-15T14:37:51;12.30;48.00
46752;DHT22;32497;48.936;9.270;2023-04-15T14:42:52;12.40;47.60
46752;DHT22;32497;48.936;9.270;2023-04-15T14:47:55;12.10;49.20
46752;DHT22;32497;48.936;9.270;2023-04-15T14:52:57;11.80;49.90
46752;DHT22;32497;48.936;9.270;2023-04-15T14:57:58;11.70;49.80
46752;DHT22;32497;48.936;9.270;2023-04-15T15:03:01;11.50;50.50
46752;DHT22;32497;48.936;9.270;2023-04-15T15:08:02;11.30;51.20
46752;DHT22;32497;48.936;9.270;2023-04-15T15:13:04;11.20;52.20
46752;DHT22;32497;48.936;9.270;2023-04-15T15:18:07;11.20;52.20
46752;DHT22;32497;48.936;9.270;2023-04-15T15:23:08;11.20;51.50
46752;DHT22;32497;48.936;9.270;2023-04-15T15:28:09;11.10;52.00
46752;DHT22;32497;48.936;9.270;2023-04-15T15:33:11;11.20;52.40
46752;DHT22;32497;48.936;9.270;2023-04-15T15:38:13;11.10;55.10
46752;DHT22;32497;48.936;9.270;2023-04-15T15:43:14;10.80;60.40
46752;DHT22;32497;48.936;9.270;2023-04-15T15:48:16;10.40;65.80
46752;DHT22;32497;48.936;9.270;2023-04-15T15:53:18;9.90;73.20
46752;DHT22;32497;48.936;9.270;2023-04-15T15:58:19;9.70;75.50
46752;DHT22;32497;48.936;9.270;2023-04-15T16:03:21;9.40;79.40
46752;DHT22;32497;48.936;9.270;2023-04-15T16:08:22;9.10;81.70
46752;DHT22;32497;48.936;9.270;2023-04-15T16:13:24;9.00;84.20
46752;DHT22;32497;48.936;9.270;2023-04-15T16:18:26;8.80;84.80
46752;DHT22;32497;48.936;9.270;2023-04-15T16:23:27;8.90;86.20
46752;DHT22;32497;48.936;9.270;2023-04-15T16:28:28;8.80;86.90
46752;DHT22;32497;48.936;9.270;2023-04-15T16:33:31;8.70;87.10
46752;DHT22;32497;48.936;9.270;2023-04-15T16:38:32;8.70;87.90
46752;DHT22;32497;48.936;9.270;2023-04-15T16:43:33;8.60;87.60
46752;DHT22;32497;48.936;9.270;2023-04-15T16:48:36;8.60;88.70
46752;DHT22;32497;48.936;9.270;2023-04-15T16:53:37;8.70;89.10
46752;DHT22;32497;48.936;9.270;2023-04-15T16:58:38;8.70;89.00
46752;DHT22;32497;48.936;9.270;2023-04-15T17:03:40;8.60;88.80
46752;DHT22;32497;48.936;9.270;2023-04-15T17:08:42;8.40;88.50
46752;DHT22;32497;48.936;9.270;2023-04-15T17:13:44;8.30;88.30
46752;DHT22;32497;48.936;9.270;2023-04-15T17:18:46;8.20;88.50
46752;DHT22;32497;48.936;9.270;2023-04-15T17:23:47;8.10;88.40
46752;DHT22;32497;48.936;9.270;2023-04-15T17:28:48;8.10;89.00
46752;DHT22;32497;48.936;9.270;2023-04-15T17:33:51;7.90;88.50
46752;DHT22;32497;48.936;9.270;2023-04-15T17:38:54;7.90;88.70
46752;DHT22;32497;48.936;9.270;2023-04-15T17:43:55;7.80;89.00
46752;DHT22;32497;48.936;9.270;2023-04-15T17:48:57;7.80;89.70
46752;DHT22;32497;48.936;9.270;2023-04-15T17:53:58;7.70;89.60
46752;DHT22;32497;48.936;9.270;2023-04-15T17:58:59;7.70;90.20
46752;DHT22;32497;48.936;9.270;2023-04-15T18:04:02;7.70;90.30
46752;DHT22;32497;48.936;9.270;2023-04-15T18:09:03;7.70;90.30
46752;DHT22;32497;48.936;9.270;2023-04-15T18:14:04;7.70;90.70
46752;DHT22;32497;48.936;9.270;2023-04-15T18:19:07;7.80;91.20
46752;DHT22;32497;48.936;9.270;2023-04-15T18:24:09;7.80;90.90
46752;DHT22;32497;48.936;9.270;2023-04-15T18:29:10;7.70;91.20
46752;DHT22;32497;48.936;9.270;2023-04-15T18:34:13;7.70;91.30
46752;DHT22;32497;48.936;9.270;2023-04-15T18:39:14;7.80;91.60
46752;DHT22;32497;48.936;9.270;2023-04-15T18:44:15;7.80;91.50
46752;DHT22;32497;48.936;9.270;2023-04-15T18:49:18;7.80;91.70
46752;DHT22;32497;48.936;9.270;2023-04-15T18:54:19;7.80;92.00
46752;DHT22;32497;48.936;9.270;2023-04-15T18:59:20;7.70;91.60
46752;DHT22;32497;48.936;9.270;2023-04-15T19:04:22;7.70;91.80
46752;DHT22;32497;48.936;9.270;2023-04-15T19:09:23;7.80;92.10
46752;DHT22;32497;48.936;9.270;2023-04-15T19:14:25;7.90;92.00
46752;DHT22;32497;48.936;9.270;2023-04-15T19:19:27;7.70;91.80
46752;DHT22;32497;48.936;9.270;2023-04-15T19:24:30;7.70;92.10
46752;DHT22;32497;48.936;9.270;2023-04-15T19:29:31;7.60;92.10
46752;DHT22;32497;48.936;9.270;2023-04-15T19:34:34;7.60;92.40
46752;DHT22;32497;48.936;9.270;2023-04-15T19:39:35;7.60;92.80
46752;DHT22;32497;48.936;9.270;2023-04-15T19:44:36;7.60;92.80
46752;DHT22;32497;48.936;9.270;2023-04-15T19:49:39;7.60;92.70
46752;DHT22;32497;48.936;9.270;2023-04-15T19:54:40;7.60;93.00
46752;DHT22;32497;48.936;9.270;2023-04-15T19:59:41;7.60;93.00
46752;DHT22;32497;48.936;9.270;2023-04-15T20:04:43;7.70;93.00
46752;DHT22;32497;48.936;9.270;2023-04-15T20:09:44;7.70;93.00
46752;DHT22;32497;48.936;9.270;2023-04-15T20:14:46;7.70;92.90
46752;DHT22;32497;48.936;9.270;2023-04-15T20:19:48;7.70;92.60
46752;DHT22;32497;48.936;9.270;2023-04-15T20:24:49;7.70;92.70
46752;DHT22;32497;48.936;9.270;2023-04-15T20:29:50;7.70;92.70
46752;DHT22;32497;48.936;9.270;2023-04-15T20:34:53;7.60;92.80
46752;DHT22;32497;48.936;9.270;2023-04-15T20:39:54;7.70;92.90
46752;DHT22;32497;48.936;9.270;2023-04-15T20:44:55;7.60;92.90
46752;DHT22;32497;48.936;9.270;2023-04-15T20:49:57;7.60;92.90
46752;DHT22;32497;48.936;9.270;2023-04-15T20:54:58;7.60;92.90
46752;DHT22;32497;48.936;9.270;2023-04-15T21:00:00;7.60;93.00
46752;DHT22;32497;48.936;9.270;2023-04-15T21:05:02;7.50;93.00
46752;DHT22;32497;48.936;9.270;2023-04-15T21:10:04;7.60;93.00
46752;DHT22;32497;48.936;9.270;2023-04-15T21:15:06;7.50;93.10
46752;DHT22;32497;48.936;9.270;2023-04-15T21:20:10;7.60;93.10
46752;DHT22;32497;48.936;9.270;2023-04-15T21:25:11;7.60;93.20
46752;DHT22;32497;48.936;9.270;2023-04-15T21:30:13;7.60;93.20
46752;DHT22;32497;48.936;9.270;2023-04-15T21:35:15;7.60;93.20
46752;DHT22;32497;48.936;9.270;2023-04-15T21:40:16;7.60;93.20
46752;DHT22;32497;48.936;9.270;2023-04-15T21:45:18;7.70;93.20
46752;DHT22;32497;48.936;9.270;2023-04-15T21:50:20;7.70;93.20
46752;DHT22;32497;48.936;9.270;2023-04-15T21:55:21;7.60;93.20
46752;DHT22;32497;48.936;9.270;2023-04-15T22:00:22;7.60;93.10
46752;DHT22;32497;48.936;9.270;2023-04-15T22:05:25;7.60;93.20
46752;DHT22;32497;48.936;9.270;2023-04-15T22:10:26;7.70;93.30
46752;DHT22;32497;48.936;9.270;2023-04-15T22:15:27;7.70;93.30
46752;DHT22;32497;48.936;9.270;2023-04-15T22:20:30;7.80;93.30
46752;DHT22;32497;48.936;9.270;2023-04-15T22:25:31;7.80;93.10
46752;DHT22;32497;48.936;9.270;2023-04-15T22:30:32;7.80;93.20
46752;DHT22;32497;48.936;9.270;2023-04-15T22:35:35;7.70;93.20
46752;DHT22;32497;48.936;9.270;2023-04-15T22:40:36;7.70;93.10
46752;DHT22;32497;48.936;9.270;2023-04-15T22:45:37;7.80;93.20
46752;DHT22;32497;48.936;9.270;2023-04-15T22:50:40;7.80;93.20
46752;DHT22;32497;48.936;9.270;2023-04-15T22:55:43;7.90;93.20
46752;DHT22;32497;48.936;9.270;2023-04-15T23:00:44;7.80;93.20
46752;DHT22;32497;48.936;9.270;2023-04-15T23:05:47;7.80;93.10
46752;DHT22;32497;48.936;9.270;2023-04-15T23:10:48;7.80;93.20
46752;DHT22;32497;48.936;9.270;2023-04-15T23:15:49;7.80;93.10
46752;DHT22;32497;48.936;9.270;2023-04-15T23:20:52;7.70;93.00
46752;DHT22;32497;48.936;9.270;2023-04-15T23:25:53;7.60;93.10
46752;DHT22;32497;48.936;9.270;2023-04-15T23:30:54;7.60;93.10
46752;DHT22;32497;48.936;9.270;2023-04-15T23:35:57;7.60;93.20
46752;DHT22;32497;48.936;9.270;2023-04-15T23:40:58;7.60;93.40
46752;DHT22;32497;48.936;9.270;2023-04-15T23:46:00;7.60;93.30
46752;DHT22;32497;48.936;9.270;2023-04-15T23:51:02;7.60;93.30
46752;DHT22;32497;48.936;9.270;2023-04-15T23:56:04;7.60;93.40
